createdAt,value
2022-09-17T00:01:40.243Z,6.57
2022-09-17T00:04:11.676Z,3.50
2022-09-17T00:06:40.097Z,5.73
2022-09-17T00:09:09.252Z,7.90
2022-09-17T00:11:40.471Z,4.30
2022-09-17T00:14:10.134Z,5.10
2022-09-17T00:16:40.978Z,6.07
2022-09-17T00:19:17.395Z,4.00
2022-09-17T00:21:46.208Z,6.97
2022-09-17T00:24:15.863Z,6.47
2022-09-17T00:26:44.773Z,5.57
2022-09-17T00:29:13.489Z,4.60
2022-09-17T00:31:42.003Z,4.93
2022-09-17T00:34:12.233Z,5.67
2022-09-17T00:36:41.125Z,4.17
2022-09-17T00:39:11.485Z,2.60
2022-09-17T00:41:40.390Z,4.57
2022-09-17T00:44:45.987Z,4.93
2022-09-17T00:47:20.153Z,2.87
2022-09-17T00:49:51.944Z,5.20
2022-09-17T00:52:24.957Z,3.80
2022-09-17T00:54:57.604Z,3.07
2022-09-17T00:57:26.385Z,3.77
2022-09-17T00:59:55.496Z,3.07
2022-09-17T01:02:24.465Z,5.10
2022-09-17T01:04:54.091Z,5.17
2022-09-17T01:07:35.837Z,3.13
2022-09-17T01:10:13.441Z,3.83
2022-09-17T01:12:53.167Z,3.97
2022-09-17T01:15:31.462Z,2.40
2022-09-17T01:18:14.592Z,5.20
2022-09-17T01:21:09.967Z,3.80
2022-09-17T01:24:08.519Z,2.67
2022-09-17T01:27:13.224Z,4.07
2022-09-17T01:29:56.708Z,4.13
2022-09-17T01:32:30.795Z,3.97
2022-09-17T01:35:06.158Z,4.13
2022-09-17T01:37:43.495Z,3.43
2022-09-17T01:40:25.019Z,3.77
2022-09-17T01:43:00.766Z,3.90
2022-09-17T01:45:34.134Z,4.70
2022-09-17T01:48:07.982Z,4.40
2022-09-17T01:50:40.493Z,3.77
2022-09-17T01:53:11.459Z,4.37
2022-09-17T01:55:41.852Z,4.80
2022-09-17T01:58:15.617Z,4.40
2022-09-17T02:00:49.778Z,3.93
2022-09-17T02:03:23.976Z,3.47
2022-09-17T02:05:58.095Z,3.43
2022-09-17T02:08:29.537Z,3.47
2022-09-17T02:11:04.639Z,3.63
2022-09-17T02:13:37.227Z,3.83
2022-09-17T02:16:11.844Z,6.10
2022-09-17T02:18:47.119Z,3.17
2022-09-17T02:21:20.329Z,3.90
2022-09-17T02:23:57.688Z,3.30
2022-09-17T02:26:28.990Z,3.57
2022-09-17T02:29:02.619Z,3.43
2022-09-17T02:31:31.021Z,4.43
2022-09-17T02:34:04.500Z,3.00
2022-09-17T02:36:35.169Z,4.03
2022-09-17T02:39:04.842Z,5.10
2022-09-17T02:41:46.979Z,4.60
2022-09-17T02:44:27.474Z,4.70
2022-09-17T02:47:19.895Z,5.30
2022-09-17T02:50:01.434Z,4.50
2022-09-17T02:52:41.039Z,4.57
2022-09-17T02:55:17.028Z,4.43
2022-09-17T02:57:53.508Z,3.23
2022-09-17T03:00:23.759Z,4.70
2022-09-17T03:02:58.722Z,3.20
2022-09-17T03:05:29.770Z,4.87
2022-09-17T03:07:59.432Z,4.77
2022-09-17T03:10:28.338Z,3.30
2022-09-17T03:12:56.673Z,3.40
2022-09-17T03:15:24.914Z,3.63
2022-09-17T03:17:53.688Z,4.27
2022-09-17T03:20:22.085Z,3.80
2022-09-17T03:23:07.754Z,2.87
2022-09-17T03:25:36.272Z,4.10
2022-09-17T03:28:04.623Z,3.10
2022-09-17T03:30:32.962Z,5.37
2022-09-17T03:33:01.193Z,4.47
2022-09-17T03:35:29.560Z,3.47
2022-09-17T03:37:59.316Z,2.13
2022-09-17T03:40:27.636Z,4.17
2022-09-17T03:42:55.908Z,2.87
2022-09-17T03:45:24.349Z,2.63
2022-09-17T03:47:52.640Z,6.07
2022-09-17T03:50:20.889Z,4.10
2022-09-17T03:52:49.114Z,4.70
2022-09-17T03:55:18.754Z,4.47
2022-09-17T03:57:47.045Z,4.27
2022-09-17T04:00:17.431Z,5.30
2022-09-17T04:02:45.964Z,5.07
2022-09-17T04:05:14.297Z,3.10
2022-09-17T04:07:42.550Z,5.13
2022-09-17T04:10:11.181Z,5.50
2022-09-17T04:12:41.027Z,3.67
2022-09-17T04:15:10.085Z,3.63
2022-09-17T04:17:38.436Z,3.90
2022-09-17T04:20:07.565Z,4.67
2022-09-17T04:22:56.530Z,3.80
2022-09-17T04:25:25.006Z,3.30
2022-09-17T04:27:55.041Z,4.03
2022-09-17T04:30:23.290Z,4.40
2022-09-17T04:32:51.618Z,3.20
2022-09-17T04:35:19.870Z,4.27
2022-09-17T04:37:54.369Z,4.30
2022-09-17T04:40:22.743Z,3.17
2022-09-17T04:42:55.412Z,3.23
2022-09-17T04:45:24.693Z,3.30
2022-09-17T04:47:53.045Z,3.47
2022-09-17T04:50:22.074Z,4.43
2022-09-17T04:52:50.497Z,3.40
2022-09-17T04:55:18.782Z,3.50
2022-09-17T04:57:48.423Z,3.30
2022-09-17T05:00:19.315Z,3.40
2022-09-17T05:02:49.161Z,5.73
2022-09-17T05:05:19.608Z,4.73
2022-09-17T05:07:48.327Z,4.33
2022-09-17T05:10:19.143Z,6.07
2022-09-17T05:12:51.074Z,4.77
2022-09-17T05:15:21.498Z,3.90
2022-09-17T05:17:49.904Z,5.87
2022-09-17T05:20:18.709Z,3.33
2022-09-17T05:22:48.609Z,3.17
2022-09-17T05:25:18.380Z,7.20
2022-09-17T05:27:46.865Z,3.50
2022-09-17T05:30:15.154Z,2.67
2022-09-17T05:32:44.895Z,4.93
2022-09-17T05:35:13.266Z,2.83
2022-09-17T05:37:41.684Z,3.37
2022-09-17T05:40:25.123Z,5.97
2022-09-17T05:42:53.425Z,2.73
2022-09-17T05:45:22.644Z,2.93
2022-09-17T05:47:58.855Z,3.13
2022-09-17T05:50:39.425Z,2.10
2022-09-17T05:53:10.614Z,3.97
2022-09-17T05:55:50.545Z,3.93
2022-09-17T06:15:21.630Z,6.80
2022-09-17T06:17:54.888Z,3.53
2022-09-17T06:20:37.486Z,3.03
2022-09-17T06:23:15.236Z,3.57
2022-09-17T06:26:04.450Z,3.00
2022-09-17T06:28:41.246Z,3.70
2022-09-17T06:31:21.364Z,4.27
2022-09-17T06:33:54.261Z,4.00
2022-09-17T06:36:24.896Z,3.23
2022-09-17T06:51:25.369Z,3.40
2022-09-17T06:53:59.175Z,2.73
2022-09-17T06:57:14.541Z,4.20
2022-09-17T07:00:13.792Z,5.27
2022-09-17T07:03:15.115Z,3.57
2022-09-17T07:06:18.418Z,3.37
2022-09-17T07:08:59.580Z,1.70
2022-09-17T07:11:47.346Z,3.20
2022-09-17T07:14:22.356Z,2.80
2022-09-17T07:23:01.899Z,5.97
2022-09-17T07:25:51.615Z,4.60
2022-09-17T07:28:42.547Z,4.03
2022-09-17T07:31:24.814Z,5.57
2022-09-17T07:34:28.731Z,3.03
2022-09-17T07:37:16.946Z,2.73
2022-09-17T07:39:48.495Z,3.00
2022-09-17T07:42:19.109Z,4.17
2022-09-17T07:44:50.798Z,3.43
2022-09-17T07:47:21.269Z,4.33
2022-09-17T07:56:28.658Z,10.73
2022-09-17T08:05:31.248Z,5.83
2022-09-17T08:08:00.405Z,3.97
2022-09-17T08:10:36.641Z,3.23
2022-09-17T08:13:05.878Z,4.80
2022-09-17T08:15:48.727Z,3.23
2022-09-17T08:18:20.922Z,3.70
2022-09-17T08:20:58.645Z,3.03
2022-09-17T08:23:31.182Z,4.47
2022-09-17T08:26:08.745Z,2.97
2022-09-17T08:28:57.997Z,3.47
2022-09-17T08:32:26.197Z,1.98
2022-09-17T08:35:03.417Z,1.67
2022-09-17T08:38:34.539Z,3.03
2022-09-17T12:57:58.914Z,3.17
2022-09-17T13:01:47.327Z,3.17
2022-09-17T13:04:59.993Z,3.27
2022-09-17T13:08:27.258Z,3.63
2022-09-17T13:23:48.583Z,3.00
2022-09-17T13:27:15.578Z,2.90
2022-09-17T13:30:35.501Z,4.00
2022-09-17T15:54:12.158Z,1.73
2022-09-17T15:56:55.801Z,3.40
2022-09-17T15:59:29.721Z,2.70
2022-09-17T16:06:57.435Z,1.70
2022-09-17T16:09:48.034Z,2.13
2022-09-17T16:12:19.311Z,3.43
2022-09-17T16:14:59.323Z,4.53
2022-09-17T16:17:46.701Z,1.93
2022-09-17T16:20:20.219Z,2.30
2022-09-17T16:22:53.060Z,2.53
2022-09-17T16:32:10.781Z,1.93
2022-09-17T16:34:39.896Z,1.20
2022-09-17T16:37:10.115Z,3.33
2022-09-17T16:39:39.539Z,0.80
2022-09-17T16:42:36.032Z,1.50
2022-09-17T16:45:07.263Z,1.13
2022-09-17T16:51:13.386Z,1.37
2022-09-17T16:53:43.228Z,0.57
2022-09-17T16:56:26.924Z,3.90
2022-09-17T16:59:03.893Z,1.87
2022-09-17T17:01:36.671Z,2.27
2022-09-17T17:04:12.915Z,2.90
2022-09-17T17:06:50.568Z,4.50
2022-09-17T17:09:19.857Z,3.57
2022-09-17T17:11:50.588Z,9.87
2022-09-17T17:14:22.227Z,5.07
2022-09-17T17:16:51.449Z,5.13
2022-09-17T17:19:20.506Z,2.30
2022-09-17T17:21:53.399Z,2.40
2022-09-17T17:24:22.787Z,3.53
2022-09-17T17:26:55.118Z,2.03
2022-09-17T17:51:24.534Z,2.37
2022-09-17T17:53:53.855Z,2.00
2022-09-17T17:56:24.828Z,2.03
2022-09-17T17:58:56.781Z,2.37
2022-09-17T18:01:31.160Z,2.33
2022-09-17T18:04:01.888Z,2.73
2022-09-17T18:15:55.889Z,2.40
2022-09-17T18:18:28.788Z,1.90
2022-09-17T18:21:04.995Z,2.70
2022-09-17T18:23:35.376Z,1.63
2022-09-17T18:26:05.204Z,1.83
2022-09-17T18:31:38.119Z,4.10
2022-09-17T18:34:11.534Z,1.20
2022-09-17T18:36:41.145Z,2.60
2022-09-17T18:42:52.977Z,4.27
2022-09-17T18:45:22.134Z,3.33
2022-09-17T18:47:53.584Z,2.33
2022-09-17T18:50:22.982Z,1.57
2022-09-17T18:52:52.000Z,2.40
2022-09-17T18:55:20.987Z,0.70
2022-09-17T18:57:51.874Z,3.30
2022-09-17T19:00:21.604Z,3.33
2022-09-17T19:02:52.051Z,4.17
2022-09-17T19:05:22.039Z,1.70
2022-09-17T19:07:53.653Z,2.60
2022-09-17T19:10:22.669Z,2.80
2022-09-17T19:12:51.361Z,1.73
2022-09-17T19:15:24.083Z,2.00
2022-09-17T19:17:55.594Z,2.40
2022-09-17T19:20:35.742Z,3.23
2022-09-17T19:23:05.121Z,3.30
2022-09-17T19:25:36.092Z,3.77
2022-09-17T19:28:08.310Z,5.13
2022-09-17T19:30:37.522Z,6.00
2022-09-17T19:33:07.561Z,6.10
2022-09-17T19:35:38.601Z,7.07
2022-09-17T19:38:12.594Z,11.90
2022-09-17T19:41:36.116Z,17.00
2022-09-17T19:44:05.225Z,11.97
2022-09-17T19:46:34.138Z,8.93
2022-09-17T19:49:04.748Z,9.10
2022-09-17T19:51:34.300Z,8.40
2022-09-17T19:54:08.548Z,10.03
2022-09-17T19:56:45.682Z,7.33
2022-09-17T19:59:14.401Z,5.60
2022-09-17T20:01:48.574Z,5.60
2022-09-17T20:04:19.673Z,5.60
2022-09-17T20:06:48.426Z,5.10
2022-09-17T20:09:17.168Z,5.30
2022-09-17T20:11:45.871Z,4.30
2022-09-17T20:14:14.961Z,3.83
2022-09-17T20:16:45.139Z,1.77
2022-09-17T20:19:16.951Z,3.63
2022-09-17T20:21:47.182Z,3.87
2022-09-17T20:24:16.063Z,1.90
2022-09-17T20:26:45.031Z,3.53
2022-09-17T20:29:13.980Z,2.33
2022-09-17T20:31:42.940Z,3.57
2022-09-17T20:34:12.604Z,3.43
2022-09-17T20:36:41.657Z,3.70
2022-09-17T20:39:18.196Z,2.67
2022-09-17T20:42:15.800Z,4.50
2022-09-17T20:44:44.937Z,4.40
2022-09-17T20:47:14.288Z,2.60
2022-09-17T20:49:43.480Z,3.80
2022-09-17T20:52:12.294Z,2.83
2022-09-17T20:54:43.129Z,4.80
2022-09-17T20:57:12.012Z,3.20
2022-09-17T20:59:52.511Z,2.57
2022-09-17T21:02:22.418Z,4.27
2022-09-17T21:05:02.002Z,3.87
2022-09-17T21:07:33.635Z,4.67
2022-09-17T21:10:03.638Z,5.30
2022-09-17T21:12:32.282Z,4.00
2022-09-17T21:15:01.006Z,4.63
2022-09-17T21:17:29.591Z,4.50
2022-09-17T21:19:58.083Z,5.17
2022-09-17T21:22:26.570Z,4.83
2022-09-17T21:24:54.980Z,5.27
2022-09-17T21:27:25.193Z,3.60
2022-09-17T21:29:53.794Z,3.73
2022-09-17T21:32:22.313Z,3.67
2022-09-17T21:34:50.838Z,3.30
2022-09-17T21:37:19.219Z,3.70
2022-09-17T21:39:47.710Z,3.10
2022-09-17T21:42:15.986Z,3.87
2022-09-17T21:44:45.737Z,2.83
2022-09-17T21:47:14.002Z,4.90
2022-09-17T21:49:43.881Z,4.07
2022-09-17T21:52:12.185Z,2.70
2022-09-17T21:54:40.861Z,3.43
2022-09-17T21:57:09.494Z,3.53
2022-09-17T21:59:51.709Z,3.27
2022-09-17T22:02:21.485Z,3.40
2022-09-17T22:04:49.778Z,4.13
2022-09-17T22:07:18.041Z,3.90
2022-09-17T22:09:46.295Z,3.17
2022-09-17T22:12:14.606Z,3.67
2022-09-17T22:14:42.873Z,4.00
2022-09-17T22:17:11.133Z,3.27
2022-09-17T22:19:40.880Z,3.53
2022-09-17T22:22:09.162Z,3.23
2022-09-17T22:24:38.460Z,3.20
2022-09-17T22:27:06.958Z,3.17
2022-09-17T22:29:35.308Z,2.43
2022-09-17T22:32:04.045Z,4.83
2022-09-17T22:34:32.315Z,3.97
2022-09-17T22:37:03.354Z,3.07
2022-09-17T22:39:31.588Z,3.17
2022-09-17T22:41:59.920Z,2.07
2022-09-17T22:44:28.502Z,2.47
2022-09-17T22:46:56.831Z,3.67
2022-09-17T22:49:25.100Z,3.27
2022-09-17T22:51:53.301Z,3.20
2022-09-17T22:54:22.972Z,3.17
2022-09-17T22:56:51.530Z,3.53
2022-09-17T22:59:21.117Z,3.77
2022-09-17T23:01:49.531Z,4.33
2022-09-17T23:04:17.807Z,3.10
2022-09-17T23:06:46.033Z,3.53
2022-09-17T23:09:14.872Z,4.63
2022-09-17T23:11:45.120Z,3.67
2022-09-17T23:14:16.829Z,5.00
2022-09-17T23:16:47.561Z,2.03
2022-09-17T23:19:17.537Z,3.97
2022-09-17T23:21:46.270Z,4.47
2022-09-17T23:24:19.237Z,4.93
2022-09-17T23:26:49.621Z,4.43
2022-09-17T23:29:18.310Z,3.50
2022-09-17T23:31:46.574Z,2.73
2022-09-17T23:34:14.923Z,3.53
2022-09-17T23:36:43.185Z,3.67
2022-09-17T23:39:12.765Z,4.50
2022-09-17T23:41:43.522Z,4.07
2022-09-17T23:44:15.747Z,3.77
2022-09-17T23:46:45.750Z,3.50
2022-09-17T23:49:15.223Z,2.80
2022-09-17T23:51:47.594Z,2.83
2022-09-17T23:54:16.473Z,3.23
2022-09-17T23:56:44.821Z,2.73
2022-09-17T23:59:14.552Z,2.87
